メインページ
METAR-TAF:

METAR-TAF

空港 :

ファアモツ国際空港

トンガタプ島, トンガ

緯度: 21-14S, 経度: 175-09W, 海抜: 38m

現時点の気象観測

当レポートは27分前の21:00(UTC)に作成
東/南東の風 15kt
気温 25°C
湿度 57%
気圧 1019 hPa
視程10km以上
高度1000ftの雲はほとんどない
高度1600ftの雲は散在している
高度3000ftの千切れ雲あり

METAR: NFTF 202100Z 12015KT 9999 FEW010 SCT016 BKN030 25/16 Q1019 RMK DRY AIR 59%

時間: 10:27 (21:27 UTC)

予報

当レポートは4時間25分前の17:02(UTC)に作成
予報は20日の 18時(UTC)から 21日の 18時(UTC)まで有効
東/南東の風 10kt
視程10km以上
高度1600ftの雲は散在している
高度10000ftの雲は散在している
確率 30% :
20日の 18時(UTC)から 21日の 06時(UTC)まで一時的に
の風 15kt、最大25ktの突風を伴う
視程: 5000m
高度800ftの雲は散在している
高度1500ftの千切れ雲あり
にわか雨

TAF: NFTF 201702Z 2018/2118 11010KT 9999 SCT016 SCT100 PROB30 TEMPO 2018/2106 10015G25KT 5000 SHRA SCT008 BKN015

4,000以上の空港の気象観測と天気予報(METAR報とTAF報)

利用可能な観測所は地図上に黄色い丸と赤い丸で示す。

丸の上にカーソルを重ねると観測所名を参照できる。

次にクリックすると気象観測と天気予報を参照できる。

マップの切り替え:黒色「×」印の緑ボタンをクリックして拡大、「-」印の緑ボタンをクリックして縮小、緑色の三角印をクリックして隣りの地図に切り替え


METAR-TAF: